createdAt,value
2018-04-06T00:02:10.952Z,2.00
2018-04-06T00:04:39.824Z,2.00
2018-04-06T00:07:08.590Z,2.00
2018-04-06T00:09:37.406Z,2.00
2018-04-06T00:12:06.229Z,2.00
2018-04-06T00:14:34.259Z,2.00
2018-04-06T00:17:02.305Z,2.00
2018-04-06T00:19:31.125Z,2.10
2018-04-06T00:21:59.997Z,2.20
2018-04-06T00:24:28.033Z,2.20
2018-04-06T00:26:57.073Z,2.30
2018-04-06T00:29:25.867Z,2.50
2018-04-06T00:31:54.668Z,2.60
2018-04-06T00:34:22.730Z,2.60
2018-04-06T00:36:50.777Z,2.60
2018-04-06T00:39:19.583Z,2.60
2018-04-06T00:41:48.388Z,2.60
2018-04-06T00:44:17.210Z,2.70
2018-04-06T00:46:46.028Z,2.70
2018-04-06T00:49:14.835Z,2.70
2018-04-06T00:51:42.867Z,2.70
2018-04-06T00:54:10.907Z,2.50
2018-04-06T00:56:38.949Z,2.30
2018-04-06T00:59:06.988Z,2.10
2018-04-06T01:01:35.019Z,2.00
2018-04-06T01:04:04.627Z,1.80
2018-04-06T01:06:32.666Z,1.80
2018-04-06T01:09:01.472Z,2.00
2018-04-06T01:11:30.272Z,2.20
2018-04-06T01:13:58.384Z,2.20
2018-04-06T01:16:27.179Z,2.30
2018-04-06T01:18:55.228Z,2.30
2018-04-06T01:21:23.260Z,2.30
2018-04-06T01:23:51.310Z,2.20
2018-04-06T01:26:19.393Z,2.10
2018-04-06T01:28:48.204Z,2.10
2018-04-06T01:31:17.011Z,2.20
2018-04-06T01:33:45.815Z,2.30
2018-04-06T01:36:13.847Z,2.30
2018-04-06T01:38:41.958Z,2.30
2018-04-06T01:41:09.972Z,2.40
2018-04-06T01:43:38.013Z,2.40
2018-04-06T01:46:06.930Z,2.60
2018-04-06T01:48:35.736Z,2.60
2018-04-06T01:51:03.791Z,2.60
2018-04-06T01:53:31.823Z,2.60
2018-04-06T01:55:59.864Z,2.60
2018-04-06T01:58:27.899Z,2.60
2018-04-06T02:00:56.050Z,2.60
2018-04-06T02:03:24.073Z,2.50
2018-04-06T02:05:52.214Z,2.50
2018-04-06T02:08:20.247Z,2.40
2018-04-06T02:10:48.289Z,2.30
2018-04-06T02:13:16.322Z,2.20
2018-04-06T02:15:45.132Z,2.30
2018-04-06T02:18:13.931Z,2.40
2018-04-06T02:20:42.736Z,2.50
2018-04-06T02:23:10.787Z,2.40
2018-04-06T02:25:38.829Z,2.50
2018-04-06T02:28:06.873Z,2.50
2018-04-06T02:30:34.912Z,2.50
2018-04-06T02:33:02.962Z,2.60
2018-04-06T02:35:31.023Z,2.60
2018-04-06T02:37:59.146Z,2.50
2018-04-06T02:40:28.572Z,2.30
2018-04-06T02:42:57.384Z,2.20
2018-04-06T02:45:25.424Z,2.20
2018-04-06T02:47:53.472Z,2.20
2018-04-06T02:50:21.505Z,2.20
2018-04-06T02:52:49.543Z,2.10
2018-04-06T02:55:17.766Z,2.10
2018-04-06T02:57:46.559Z,2.20
2018-04-06T03:00:14.689Z,2.10
2018-04-06T03:02:42.729Z,2.20
2018-04-06T03:05:10.764Z,2.10
2018-04-06T03:07:39.564Z,2.20
2018-04-06T03:10:07.611Z,2.20
2018-04-06T03:12:35.656Z,2.20
2018-04-06T03:15:03.692Z,2.20
2018-04-06T03:17:31.781Z,2.30
2018-04-06T03:20:00.656Z,2.40
2018-04-06T03:22:28.703Z,2.40
2018-04-06T03:24:56.745Z,2.40
2018-04-06T03:27:24.790Z,2.40
2018-04-06T03:29:52.824Z,2.50
2018-04-06T03:32:20.864Z,2.60
2018-04-06T03:34:49.679Z,2.60
2018-04-06T03:37:18.510Z,2.70
2018-04-06T03:39:47.423Z,2.70
2018-04-06T03:42:16.226Z,2.70
2018-04-06T03:44:45.023Z,2.80
2018-04-06T03:47:13.088Z,2.70
2018-04-06T03:49:41.137Z,2.70
2018-04-06T03:52:09.183Z,2.80
2018-04-06T03:54:37.222Z,2.80
2018-04-06T03:57:05.276Z,2.80
2018-04-06T03:59:33.354Z,2.80
2018-04-06T04:02:02.143Z,2.80
2018-04-06T04:04:30.281Z,2.80
2018-04-06T04:06:58.319Z,2.80
2018-04-06T04:09:26.380Z,2.80
2018-04-06T04:11:55.222Z,2.90
2018-04-06T04:14:23.998Z,2.90
2018-04-06T04:16:52.028Z,2.90
2018-04-06T04:19:20.835Z,3.00
2018-04-06T04:21:49.636Z,3.00
2018-04-06T04:24:17.675Z,3.00
2018-04-06T04:26:45.722Z,3.00
2018-04-06T04:29:13.762Z,3.00
2018-04-06T04:31:42.563Z,3.10
2018-04-06T04:34:10.604Z,3.10
2018-04-06T04:36:38.631Z,3.10
2018-04-06T04:39:07.588Z,3.10
2018-04-06T04:41:35.624Z,3.20
2018-04-06T04:44:03.672Z,3.20
2018-04-06T04:46:32.488Z,3.20
2018-04-06T04:49:00.523Z,3.20
2018-04-06T04:51:28.648Z,3.20
2018-04-06T04:53:56.768Z,3.20
2018-04-06T04:56:25.593Z,3.20
2018-04-06T04:58:54.397Z,3.20
2018-04-06T05:01:22.443Z,3.20
2018-04-06T05:03:50.499Z,3.20
2018-04-06T05:06:18.588Z,3.30
2018-04-06T05:08:46.643Z,3.30
2018-04-06T05:11:14.689Z,3.30
2018-04-06T05:13:42.719Z,3.40
2018-04-06T05:16:10.764Z,3.50
2018-04-06T05:18:39.564Z,3.60
2018-04-06T05:21:07.728Z,3.60
2018-04-06T05:23:35.800Z,3.70
2018-04-06T05:26:03.839Z,3.70
2018-04-06T05:28:31.876Z,3.80
2018-04-06T05:30:59.996Z,3.90
2018-04-06T05:33:28.820Z,3.90
2018-04-06T05:35:57.639Z,4.00
2018-04-06T05:38:25.756Z,4.00
2018-04-06T05:40:54.576Z,4.10
2018-04-06T05:43:23.384Z,4.10
2018-04-06T05:45:52.212Z,4.10
2018-04-06T05:48:21.024Z,4.10
2018-04-06T05:50:49.824Z,4.20
2018-04-06T05:53:17.876Z,4.20
2018-04-06T05:55:45.919Z,4.30
2018-04-06T05:58:14.757Z,4.40
2018-04-06T06:00:42.764Z,4.30
2018-04-06T06:03:11.571Z,4.50
2018-04-06T06:05:39.611Z,4.40
2018-04-06T06:08:07.656Z,4.50
2018-04-06T06:10:35.691Z,4.50
2018-04-06T06:13:03.803Z,4.70
2018-04-06T06:15:32.620Z,4.80
2018-04-06T06:18:00.651Z,4.70
2018-04-06T06:20:28.700Z,4.80
2018-04-06T06:22:56.744Z,4.90
2018-04-06T06:25:25.548Z,5.00
2018-04-06T06:27:53.599Z,5.00
2018-04-06T06:30:21.632Z,5.10
2018-04-06T06:32:49.676Z,5.10
2018-04-06T06:35:17.740Z,5.20
2018-04-06T06:37:45.876Z,5.30
2018-04-06T06:40:14.697Z,5.40
2018-04-06T06:42:43.495Z,5.50
2018-04-06T06:45:11.544Z,5.50
2018-04-06T06:47:39.595Z,5.70
2018-04-06T06:50:07.731Z,5.70
2018-04-06T06:52:35.768Z,5.80
2018-04-06T06:55:03.828Z,5.80
2018-04-06T06:57:31.858Z,5.90
2018-04-06T06:59:59.904Z,6.00
2018-04-06T07:02:28.752Z,6.10
2018-04-06T07:04:56.876Z,6.10
2018-04-06T07:07:24.912Z,6.20
2018-04-06T07:09:52.944Z,6.30
2018-04-06T07:12:20.992Z,6.30
2018-04-06T07:14:49.682Z,6.40
2018-04-06T07:17:17.804Z,6.50
2018-04-06T07:19:45.864Z,6.50
2018-04-06T07:22:13.902Z,6.60
2018-04-06T07:24:42.715Z,6.80
2018-04-06T07:27:11.527Z,6.90
2018-04-06T07:29:40.341Z,6.90
2018-04-06T07:32:08.478Z,6.90
2018-04-06T07:34:37.379Z,7.10
2018-04-06T07:37:06.184Z,7.20
2018-04-06T07:39:34.215Z,7.20
2018-04-06T07:42:02.262Z,7.30
2018-04-06T07:44:30.292Z,7.50
2018-04-06T07:46:59.211Z,7.60
2018-04-06T07:49:28.012Z,7.70
2018-04-06T07:51:56.075Z,7.70
2018-04-06T07:54:24.112Z,7.80
2018-04-06T07:56:52.161Z,7.80
2018-04-06T07:59:20.193Z,8.00
2018-04-06T08:01:48.586Z,8.10
2018-04-06T08:04:16.636Z,8.20
2018-04-06T08:06:45.433Z,8.40
2018-04-06T08:09:13.480Z,8.40
2018-04-06T08:11:41.560Z,8.50
2018-04-06T08:14:10.399Z,8.60
2018-04-06T08:16:38.452Z,8.60
2018-04-06T08:19:06.573Z,8.70
2018-04-06T08:21:35.372Z,8.80
2018-04-06T08:24:03.428Z,8.70
2018-04-06T08:26:31.459Z,8.80
2018-04-06T08:28:59.528Z,8.90
2018-04-06T08:31:27.567Z,9.00
2018-04-06T08:33:55.623Z,9.00
2018-04-06T08:36:24.555Z,9.20
2018-04-06T08:38:52.615Z,9.20
2018-04-06T08:41:20.669Z,9.30
2018-04-06T08:43:48.719Z,9.30
2018-04-06T08:46:16.756Z,9.40
2018-04-06T08:48:44.800Z,9.60
2018-04-06T08:51:12.856Z,9.80
2018-04-06T08:53:41.658Z,9.90
2018-04-06T08:56:10.756Z,10.00
2018-04-06T08:58:38.801Z,10.00
2018-04-06T09:01:06.984Z,10.00
2018-04-06T09:03:35.787Z,10.30
2018-04-06T09:06:03.857Z,10.30
2018-04-06T09:08:31.916Z,10.40
2018-04-06T09:11:00.720Z,10.50
2018-04-06T09:13:28.778Z,10.50
2018-04-06T09:15:56.836Z,10.50
2018-04-06T09:18:24.877Z,10.60
2018-04-06T09:20:52.925Z,10.70
2018-04-06T09:23:20.987Z,10.80
2018-04-06T09:25:49.045Z,10.80
2018-04-06T09:28:17.085Z,11.00
2018-04-06T09:30:45.151Z,11.10
2018-04-06T09:33:13.193Z,11.20
2018-04-06T09:35:41.245Z,11.30
2018-04-06T09:38:09.304Z,11.20
2018-04-06T09:40:37.352Z,11.20
2018-04-06T09:43:05.392Z,11.50
2018-04-06T09:45:33.451Z,11.40
2018-04-06T09:48:01.490Z,11.50
2018-04-06T09:50:29.539Z,11.50
2018-04-06T09:52:57.588Z,11.60
2018-04-06T09:55:26.475Z,11.90
2018-04-06T09:57:54.500Z,11.80
2018-04-06T10:00:28.118Z,12.00
2018-04-06T10:02:57.003Z,12.20
2018-04-06T10:05:25.755Z,12.40
2018-04-06T10:07:53.816Z,12.30
2018-04-06T10:10:22.623Z,12.50
2018-04-06T10:12:50.673Z,12.40
2018-04-06T10:15:18.712Z,12.60
2018-04-06T10:17:46.875Z,12.70
2018-04-06T10:20:14.920Z,12.70
2018-04-06T10:25:18.063Z,12.70
2018-04-06T10:27:46.888Z,12.70
2018-04-06T10:30:15.709Z,12.80
2018-04-06T10:32:44.531Z,13.00
2018-04-06T10:35:13.429Z,13.10
2018-04-06T10:37:42.178Z,13.20
2018-04-06T10:40:10.980Z,13.30
2018-04-06T10:42:39.055Z,13.20
2018-04-06T10:45:07.097Z,13.20
2018-04-06T10:47:35.140Z,13.30
2018-04-06T10:50:03.201Z,13.50
2018-04-06T10:52:31.244Z,13.70
2018-04-06T10:54:59.335Z,13.60
2018-04-06T10:57:27.428Z,13.40
2018-04-06T10:59:56.250Z,13.70
2018-04-06T11:02:24.339Z,13.70
2018-04-06T11:04:53.145Z,14.10
2018-04-06T11:07:21.192Z,14.00
2018-04-06T11:09:49.288Z,14.20
2018-04-06T11:12:17.328Z,14.20
2018-04-06T11:14:45.392Z,14.30
2018-04-06T11:17:13.447Z,14.20
2018-04-06T11:19:41.488Z,14.20
2018-04-06T11:22:09.554Z,14.10
2018-04-06T11:24:37.608Z,14.30
2018-04-06T11:27:05.688Z,14.30
2018-04-06T11:29:34.516Z,14.60
2018-04-06T11:32:03.374Z,14.80
2018-04-06T11:34:32.152Z,14.90
2018-04-06T11:37:01.089Z,14.90
2018-04-06T11:39:29.911Z,15.10
2018-04-06T11:41:58.728Z,15.10
2018-04-06T11:44:27.556Z,14.90
2018-04-06T11:46:56.365Z,14.90
2018-04-06T11:49:25.173Z,14.90
2018-04-06T11:51:53.239Z,14.90
2018-04-06T11:54:21.276Z,15.00
2018-04-06T11:56:50.099Z,15.20
2018-04-06T11:59:18.914Z,15.30
2018-04-06T12:01:47.761Z,15.40
2018-04-06T12:04:15.893Z,15.40
2018-04-06T12:06:43.954Z,15.30
2018-04-06T12:09:12.017Z,15.60
2018-04-06T12:11:40.073Z,15.70
2018-04-06T12:14:08.881Z,15.50
2018-04-06T12:16:36.991Z,15.50
2018-04-06T12:19:05.062Z,15.50
2018-04-06T12:21:33.099Z,15.60
2018-04-06T12:24:01.165Z,15.60
2018-04-06T12:26:29.204Z,15.60
2018-04-06T12:28:57.244Z,15.70
2018-04-06T12:31:26.064Z,15.70
2018-04-06T12:33:54.884Z,15.70
2018-04-06T12:36:22.929Z,15.70
2018-04-06T12:38:50.996Z,15.80
2018-04-06T12:41:19.060Z,16.00
2018-04-06T12:43:47.104Z,16.00
2018-04-06T12:46:15.311Z,16.00
2018-04-06T12:48:43.368Z,16.00
2018-04-06T12:51:11.408Z,16.10
2018-04-06T12:53:40.232Z,16.00
2018-04-06T12:56:08.274Z,16.00
2018-04-06T12:58:36.331Z,16.10
2018-04-06T13:01:05.168Z,16.10
2018-04-06T13:03:33.971Z,16.30
2018-04-06T13:06:02.776Z,16.40
2018-04-06T13:08:30.836Z,16.40
2018-04-06T13:10:59.659Z,16.30
2018-04-06T13:13:27.715Z,16.30
2018-04-06T13:15:55.753Z,16.50
2018-04-06T13:18:24.568Z,16.30
2018-04-06T13:20:53.413Z,16.50
2018-04-06T13:23:21.484Z,16.40
2018-04-06T13:25:49.512Z,16.40
2018-04-06T13:28:19.319Z,16.10
2018-04-06T13:30:47.371Z,16.10
2018-04-06T13:33:15.412Z,16.10
2018-04-06T13:35:43.496Z,16.30
2018-04-06T13:38:11.573Z,16.40
2018-04-06T13:40:40.368Z,16.60
2018-04-06T13:43:09.196Z,16.50
2018-04-06T13:45:38.026Z,16.50
2018-04-06T13:48:06.853Z,16.50
2018-04-06T13:50:34.904Z,16.50
2018-04-06T13:53:02.975Z,16.50
2018-04-06T13:55:31.024Z,16.80
2018-04-06T13:58:00.576Z,16.80
2018-04-06T14:00:28.633Z,16.80
2018-04-06T14:02:56.668Z,16.60
2018-04-06T14:05:24.730Z,16.80
2018-04-06T14:07:52.775Z,16.90
2018-04-06T14:10:20.820Z,16.80
2018-04-06T14:12:48.873Z,16.70
2018-04-06T14:15:16.939Z,16.70
2018-04-06T14:17:44.975Z,16.70
2018-04-06T14:20:14.524Z,16.60
2018-04-06T14:22:42.588Z,16.60
2018-04-06T14:25:10.640Z,16.70
2018-04-06T14:27:38.693Z,16.70
2018-04-06T14:30:06.740Z,16.70
2018-04-06T14:32:34.792Z,16.60
2018-04-06T14:35:02.828Z,16.60
2018-04-06T14:37:30.882Z,16.70
2018-04-06T14:39:59.684Z,16.60
2018-04-06T14:42:27.741Z,16.60
2018-04-06T14:44:55.779Z,16.80
2018-04-06T14:47:23.828Z,16.70
2018-04-06T14:49:51.883Z,16.60
2018-04-06T14:52:20.687Z,16.70
2018-04-06T14:54:49.507Z,16.70
2018-04-06T14:57:18.324Z,16.70
2018-04-06T14:59:47.171Z,16.60
2018-04-06T15:02:15.223Z,16.70
2018-04-06T15:04:43.272Z,16.70
2018-04-06T15:07:11.324Z,16.90
2018-04-06T15:09:39.440Z,16.90
2018-04-06T15:12:08.286Z,16.70
2018-04-06T15:14:36.335Z,16.70
2018-04-06T15:17:04.364Z,16.70
2018-04-06T15:19:32.444Z,16.60
2018-04-06T15:22:01.261Z,16.50
2018-04-06T15:24:30.055Z,16.40
2018-04-06T15:26:59.621Z,16.40
2018-04-06T15:29:27.661Z,16.40
2018-04-06T15:31:55.716Z,16.20
2018-04-06T15:34:23.763Z,16.30
2018-04-06T15:36:51.812Z,16.20
2018-04-06T15:39:19.872Z,16.20
2018-04-06T15:41:48.679Z,16.30
2018-04-06T15:44:16.717Z,16.20
2018-04-06T15:46:44.786Z,16.10
2018-04-06T15:49:13.621Z,16.10
2018-04-06T15:51:41.708Z,16.10
2018-04-06T15:54:10.536Z,16.00
2018-04-06T15:56:38.626Z,16.00
2018-04-06T15:59:07.444Z,16.00
2018-04-06T16:01:35.504Z,15.90
2018-04-06T16:04:03.546Z,15.90
2018-04-06T16:06:31.583Z,15.80
2018-04-06T16:08:59.640Z,15.80
2018-04-06T16:11:27.705Z,15.70
2018-04-06T16:13:55.740Z,15.60
2018-04-06T16:16:23.779Z,15.60
2018-04-06T16:18:51.836Z,15.60
2018-04-06T16:21:19.889Z,15.60
2018-04-06T16:23:48.708Z,15.60
2018-04-06T16:26:17.553Z,15.50
2018-04-06T16:28:46.356Z,15.50
2018-04-06T16:31:14.396Z,15.40
2018-04-06T16:33:42.429Z,15.40
2018-04-06T16:36:11.245Z,15.30
2018-04-06T16:38:39.279Z,15.30
2018-04-06T16:41:08.107Z,15.10
2018-04-06T16:43:36.154Z,15.10
2018-04-06T16:46:04.972Z,15.00
2018-04-06T16:48:33.800Z,15.00
2018-04-06T16:51:01.844Z,15.00
2018-04-06T16:53:29.885Z,15.00
2018-04-06T16:55:57.945Z,14.90
2018-04-06T16:58:25.983Z,14.90
2018-04-06T17:00:54.052Z,14.80
2018-04-06T17:03:22.850Z,14.70
2018-04-06T17:05:50.896Z,14.70
2018-04-06T17:08:20.028Z,14.70
2018-04-06T17:10:48.070Z,14.50
2018-04-06T17:13:16.123Z,14.40
2018-04-06T17:15:44.931Z,14.20
2018-04-06T17:18:13.047Z,14.20
2018-04-06T17:20:41.847Z,14.00
2018-04-06T17:23:09.916Z,14.00
2018-04-06T17:25:37.956Z,14.10
2018-04-06T17:28:06.758Z,13.90
2018-04-06T17:30:34.810Z,13.90
2018-04-06T17:33:02.850Z,13.90
2018-04-06T17:35:30.980Z,13.80
2018-04-06T17:37:59.018Z,13.70
2018-04-06T17:40:27.268Z,13.60
2018-04-06T17:42:55.305Z,13.50
2018-04-06T17:45:23.362Z,13.40
2018-04-06T17:47:52.177Z,13.30
2018-04-06T17:50:20.309Z,13.20
2018-04-06T17:52:48.349Z,13.20
2018-04-06T17:55:16.383Z,13.10
2018-04-06T17:57:44.440Z,13.00
2018-04-06T18:00:13.249Z,12.90
2018-04-06T18:02:41.306Z,12.80
2018-04-06T18:05:09.356Z,12.90
2018-04-06T18:07:37.413Z,12.80
2018-04-06T18:10:05.456Z,12.80
2018-04-06T18:12:34.259Z,12.70
2018-04-06T18:15:03.081Z,12.60
2018-04-06T18:17:31.897Z,12.60
2018-04-06T18:20:00.711Z,12.60
2018-04-06T18:22:29.520Z,12.50
2018-04-06T18:24:58.339Z,12.50
2018-04-06T18:27:27.201Z,12.50
2018-04-06T18:29:55.196Z,12.40
2018-04-06T18:32:23.484Z,12.40
2018-04-06T18:34:51.519Z,12.30
2018-04-06T18:37:19.612Z,12.30
2018-04-06T18:39:47.645Z,12.20
2018-04-06T18:42:16.464Z,12.10
2018-04-06T18:44:45.311Z,12.00
2018-04-06T18:47:14.093Z,12.00
2018-04-06T18:49:42.911Z,11.90
2018-04-06T18:52:11.060Z,11.90
2018-04-06T18:54:39.805Z,11.80
2018-04-06T18:57:07.840Z,11.80
2018-04-06T18:59:35.905Z,11.80
2018-04-06T19:02:04.712Z,11.70
2018-04-06T19:04:32.757Z,11.70
2018-04-06T19:07:00.796Z,11.60
2018-04-06T19:09:28.856Z,11.60
2018-04-06T19:11:57.021Z,11.60
2018-04-06T19:14:25.859Z,11.60
2018-04-06T19:16:53.907Z,11.50
2018-04-06T19:19:21.957Z,11.50
2018-04-06T19:21:50.068Z,11.50
2018-04-06T19:24:18.109Z,11.40
2018-04-06T19:26:46.173Z,11.40
2018-04-06T19:29:14.236Z,11.30
2018-04-06T19:31:42.292Z,11.30
2018-04-06T19:34:11.099Z,11.20
2018-04-06T19:36:39.163Z,11.20
2018-04-06T19:39:07.203Z,11.10
2018-04-06T19:41:35.333Z,11.10
2018-04-06T19:44:04.140Z,11.00
2018-04-06T19:46:32.952Z,11.00
2018-04-06T19:49:01.769Z,10.90
2018-04-06T19:51:30.594Z,10.90
2018-04-06T19:53:59.503Z,10.90
2018-04-06T19:56:28.313Z,10.80
2018-04-06T19:58:57.131Z,10.90
2018-04-06T20:01:25.948Z,10.80
2018-04-06T20:03:54.781Z,10.90
2018-04-06T20:06:23.648Z,10.80
2018-04-06T20:08:53.342Z,10.80
2018-04-06T20:11:22.121Z,10.80
2018-04-06T20:13:50.939Z,10.80
2018-04-06T20:16:19.748Z,10.80
2018-04-06T20:18:48.559Z,10.80
2018-04-06T20:21:17.368Z,10.70
2018-04-06T20:23:46.171Z,10.70
2018-04-06T20:26:15.741Z,10.60
2018-04-06T20:28:43.776Z,10.60
2018-04-06T20:31:11.816Z,10.70
2018-04-06T20:33:40.636Z,10.70
2018-04-06T20:36:09.528Z,10.70
2018-04-06T20:38:39.080Z,10.60
2018-04-06T20:41:07.884Z,10.60
2018-04-06T20:43:35.940Z,10.60
2018-04-06T20:46:03.976Z,10.60
2018-04-06T20:48:32.024Z,10.60
2018-04-06T20:51:00.077Z,10.50
2018-04-06T20:53:28.124Z,10.40
2018-04-06T20:55:56.179Z,10.40
2018-04-06T20:58:24.997Z,10.50
2018-04-06T21:00:53.812Z,10.50
2018-04-06T21:03:22.619Z,10.40
2018-04-06T21:05:51.437Z,10.40
2018-04-06T21:08:20.356Z,10.40
2018-04-06T21:10:49.159Z,10.40
2018-04-06T21:13:18.081Z,10.40
2018-04-06T21:15:46.899Z,10.40
2018-04-06T21:18:15.700Z,10.50
2018-04-06T21:20:44.507Z,10.40
2018-04-06T21:23:12.561Z,10.40
2018-04-06T21:25:40.598Z,10.50
2018-04-06T21:28:08.657Z,10.50
2018-04-06T21:30:36.699Z,10.40
2018-04-06T21:33:04.752Z,10.40
2018-04-06T21:35:32.787Z,10.40
2018-04-06T21:38:00.852Z,10.40
2018-04-06T21:40:28.882Z,10.40
2018-04-06T21:42:56.924Z,10.30
2018-04-06T21:45:24.983Z,10.20
2018-04-06T21:47:53.020Z,10.20
2018-04-06T21:50:21.084Z,10.10
2018-04-06T21:52:49.884Z,10.10
2018-04-06T21:55:17.928Z,10.10
2018-04-06T21:57:45.984Z,10.10
2018-04-06T22:00:14.791Z,10.10
2018-04-06T22:02:43.607Z,10.10
2018-04-06T22:05:11.656Z,10.00
2018-04-06T22:07:39.728Z,10.10
2018-04-06T22:10:07.775Z,10.10
2018-04-06T22:12:36.603Z,10.20
2018-04-06T22:15:04.644Z,10.20
2018-04-06T22:17:32.679Z,10.20
2018-04-06T22:20:00.740Z,10.20
2018-04-06T22:22:28.795Z,10.20
2018-04-06T22:24:56.844Z,10.10
2018-04-06T22:27:24.904Z,10.10
2018-04-06T22:29:53.726Z,10.20
2018-04-06T22:32:22.536Z,10.20
2018-04-06T22:34:51.350Z,10.20
2018-04-06T22:37:20.171Z,10.20
2018-04-06T22:39:48.245Z,10.20
2018-04-06T22:42:17.051Z,10.10
2018-04-06T22:44:45.273Z,10.10
2018-04-06T22:47:14.089Z,9.90
2018-04-06T22:49:42.896Z,10.00
2018-04-06T22:52:11.712Z,9.90
2018-04-06T22:54:40.516Z,9.90
2018-04-06T22:57:08.568Z,9.90
2018-04-06T22:59:36.615Z,9.90
2018-04-06T23:02:05.415Z,9.80
2018-04-06T23:04:33.473Z,9.80
2018-04-06T23:07:01.512Z,9.80
2018-04-06T23:09:29.548Z,9.80
2018-04-06T23:11:57.596Z,9.80
2018-04-06T23:14:27.256Z,9.80
2018-04-06T23:16:56.171Z,9.80
2018-04-06T23:19:24.983Z,9.80
2018-04-06T23:21:53.788Z,9.70
2018-04-06T23:24:21.838Z,9.70
2018-04-06T23:26:49.860Z,9.70
2018-04-06T23:29:17.899Z,9.60
2018-04-06T23:31:45.933Z,9.70
2018-04-06T23:34:13.969Z,9.60
2018-04-06T23:36:42.084Z,9.60
2018-04-06T23:39:10.889Z,9.60
2018-04-06T23:41:39.688Z,9.60
2018-04-06T23:44:07.724Z,9.60
2018-04-06T23:46:35.758Z,9.60
2018-04-06T23:49:03.792Z,9.50
2018-04-06T23:51:32.592Z,9.40
2018-04-06T23:54:01.389Z,9.40
2018-04-06T23:56:29.487Z,9.40
2018-04-06T23:58:57.516Z,9.40
